Data for 02/04/2008

Time Sea-Level Adjusted Pressure Absolute Pressure Temperature Relative Humidity Dew Point   
(mb) (inHg) (mb) (inHg) (C) (F) (%) (C) (F)
00:05 1006 29.71 835 24.66 -7.1 19.3 91 -8.3 17
00:10 1006 29.71 835 24.66 -7.2 19.1 90 -8.5 16.7
00:15 1006 29.71 835 24.66 -7.3 18.9 91 -8.6 16.6
00:20 1006 29.71 835 24.66 -7.3 18.9 91 -8.5 16.7
00:25 1006 29.71 836 24.69 -7.3 18.8 91 -8.6 16.5
00:30 1006 29.71 836 24.69 -7.4 18.6 92 -8.6 16.6
00:35 1006 29.71 836 24.69 -7.4 18.7 91 -8.6 16.6
00:40 1007 29.74 836 24.69 -7.6 18.4 92 -8.7 16.4
00:45 1007 29.74 836 24.69 -7.8 18 92 -8.9 16
00:50 1007 29.74 836 24.69 -7.9 17.9 91 -9 15.8
00:55 1007 29.74 836 24.69 -7.9 17.7 92 -9.1 15.7
01:00 1007 29.74 836 24.69 -7.9 17.8 92 -9 15.8
01:05 1007 29.74 836 24.69 -7.8 17.9 91 -9.1 15.6
01:10 1007 29.74 836 24.69 -7.9 17.9 91 -9.1 15.7
01:15 1007 29.74 836 24.69 -7.8 17.9 91 -9.1 15.7
01:20 1007 29.74 836 24.69 -7.8 18 90 -9.2 15.5
01:25 1007 29.74 836 24.69 -8 17.5 91 -9.2 15.4
01:30 1007 29.74 836 24.69 -8 17.6 91 -9.2 15.4
01:35 1007 29.74 836 24.69 -7.9 17.7 91 -9.1 15.5
01:40 1007 29.74 836 24.69 -8 17.6 91 -9.2 15.4
01:45 1007 29.74 836 24.69 -7.9 17.7 91 -9.1 15.6
01:50 1007 29.74 837 24.72 -7.9 17.8 90 -9.2 15.5
01:55 1007 29.74 837 24.72 -7.9 17.7 91 -9.1 15.6
02:00 1008 29.77 837 24.72 -7.9 17.8 91 -9.1 15.5
02:05 1008 29.77 837 24.72 -8.1 17.5 91 -9.3 15.2
02:10 1008 29.77 837 24.72 -8.2 17.2 91 -9.4 15
02:15 1008 29.77 837 24.72 -8.2 17.2 91 -9.5 15
02:20 1008 29.77 837 24.72 -8.2 17.3 91 -9.4 15.1
02:25 1008 29.77 837 24.72 -8.2 17.2 91 -9.5 14.9
02:30 1008 29.77 837 24.72 -8.3 17.1 90 -9.6 14.7
02:35 1008 29.77 837 24.72 -8.2 17.2 91 -9.5 15
02:40 1008 29.77 837 24.72 -8.1 17.5 90 -9.4 15
02:45 1008 29.77 837 24.72 -8.1 17.4 89 -9.6 14.7
02:50 1008 29.77 837 24.72 -8.3 17 90 -9.7 14.6
02:55 1008 29.77 838 24.75 -8.3 17 90 -9.7 14.6
03:00 1008 29.77 838 24.75 -8.4 16.9 90 -9.8 14.3
03:05 1008 29.77 838 24.75 -8.6 16.6 89 -10 14
03:10 1008 29.77 838 24.75 -8.7 16.4 91 -9.9 14.1
03:15 1008 29.77 838 24.75 -8.7 16.3 90 -10.1 13.9
03:20 1009 29.8 838 24.75 -8.7 16.3 90 -10.1 13.8
03:25 1009 29.8 838 24.75 -8.8 16.1 90 -10.2 13.6
03:30 1009 29.8 838 24.75 -8.9 15.9 90 -10.3 13.5
03:35 1009 29.8 838 24.75 -8.9 16 90 -10.3 13.4
03:40 1009 29.8 838 24.75 -8.9 16 90 -10.3 13.5
03:45 1009 29.8 838 24.75 -8.9 16 89 -10.4 13.2
03:50 1009 29.8 838 24.75 -8.9 15.9 89 -10.4 13.2
03:55 1009 29.8 838 24.75 -9 15.9 89 -10.5 13.2
04:00 1009 29.8 838 24.75 -9 15.9 88 -10.6 13
04:05 1009 29.8 838 24.75 -9 15.8 88 -10.6 12.8
04:10 1009 29.8 838 24.75 -9.1 15.7 88 -10.6 12.9
04:15 1009 29.8 838 24.75 -9.2 15.5 89 -10.7 12.7
04:20 1009 29.8 838 24.75 -9.1 15.6 89 -10.7 12.8
04:25 1009 29.8 839 24.78 -9.1 15.6 89 -10.7 12.8
04:30 1009 29.8 839 24.78 -9.2 15.5 88 -10.8 12.6
04:35 1009 29.8 839 24.78 -9.2 15.4 88 -10.8 12.6
04:40 1010 29.83 839 24.78 -9.2 15.5 88 -10.9 12.5
04:45 1010 29.83 839 24.78 -9.2 15.5 87 -11 12.3
04:50 1010 29.83 839 24.78 -9.3 15.2 88 -11 12.3
04:55 1010 29.83 839 24.78 -9.4 15 88 -11.1 12.1
05:00 1010 29.83 839 24.78 -9.5 14.9 88 -11.2 11.9
05:05 1010 29.83 839 24.78 -9.6 14.7 87 -11.4 11.5
05:10 1010 29.83 839 24.78 -9.8 14.4 87 -11.6 11.2
05:15 1010 29.83 839 24.78 -9.9 14.2 87 -11.6 11.1
05:20 1010 29.83 839 24.78 -10 14.1 88 -11.7 11
05:25 1010 29.83 839 24.78 -9.9 14.1 87 -11.7 11
05:30 1010 29.83 839 24.78 -9.9 14.3 87 -11.6 11
05:35 1010 29.83 840 24.81 -9.8 14.3 87 -11.6 11
05:40 1010 29.83 840 24.81 -9.9 14.3 86 -11.8 10.8
05:45 1010 29.83 840 24.81 -9.9 14.2 87 -11.7 11
05:50 1011 29.85 840 24.81 -9.8 14.3 86 -11.8 10.8
05:55 1011 29.85 840 24.81 -9.8 14.3 86 -11.7 10.9
06:00 1011 29.85 840 24.81 -9.8 14.4 86 -11.6 11
06:05 1011 29.85 840 24.81 -9.8 14.4 86 -11.7 10.9
06:10 1011 29.85 840 24.81 -10 13.9 88 -11.7 10.9
06:15 1011 29.85 840 24.81 -10 13.9 87 -11.8 10.7
06:20 1011 29.85 840 24.81 -10.1 13.8 87 -11.9 10.6
06:25 1011 29.85 840 24.81 -10.2 13.6 88 -11.9 10.7
06:30 1011 29.85 840 24.81 -10.2 13.6 87 -12 10.5
06:35 1011 29.85 840 24.81 -10.4 13.4 88 -12 10.4
06:40 1011 29.85 840 24.81 -10.3 13.4 87 -12.1 10.2
06:45 1011 29.85 840 24.81 -10.3 13.4 87 -12.1 10.2
06:50 1011 29.85 841 24.83 -10.5 13.1 88 -12.1 10.2
06:55 1011 29.85 841 24.83 -10.5 13 88 -12.1 10.2
07:00 1011 29.85 841 24.83 -10.5 13.1 88 -12.1 10.2
07:05 1011 29.85 841 24.83 -10.7 12.8 89 -12.1 10.2
07:10 1012 29.88 841 24.83 -10.7 12.7 90 -12.1 10.2
07:15 1012 29.88 841 24.83 -10.7 12.8 89 -12.1 10.3
07:20 1012 29.88 841 24.83 -10.6 12.9 89 -12.1 10.2
07:25 1012 29.88 841 24.83 -10.6 12.9 89 -12.1 10.3
07:30 1012 29.88 841 24.83 -10.6 13 90 -11.9 10.5
07:35 1012 29.88 841 24.83 -10.5 13.1 90 -11.9 10.6
07:40 1012 29.88 841 24.83 -10.6 13 90 -11.9 10.6
07:45 1012 29.88 841 24.83 -10.6 13 90 -11.8 10.7
07:50 1012 29.88 841 24.83 -10.6 13 90 -11.8 10.7
07:55 1012 29.88 842 24.86 -10.5 13.1 90 -11.8 10.7
08:00 1012 29.88 842 24.86 -10.5 13.1 89 -12 10.4
08:05 1012 29.88 842 24.86 -10.4 13.3 87 -12.1 10.2
08:10 1013 29.91 842 24.86 -10.1 13.8 86 -12.1 10.3
08:15 1013 29.91 842 24.86 -10 13.9 85 -12.1 10.2
08:20 1013 29.91 842 24.86 -10 14.1 84 -12.1 10.2
08:25 1013 29.91 842 24.86 -9.8 14.3 84 -12.1 10.3
08:30 1013 29.91 842 24.86 -9.8 14.4 84 -12 10.3
08:35 1013 29.91 842 24.86 -9.7 14.6 83 -12 10.4
08:40 1013 29.91 842 24.86 -9.6 14.8 82 -12.1 10.2
08:45 1013 29.91 842 24.86 -9.5 15 82 -12 10.3
08:50 1013 29.91 842 24.86 -9.5 15 81 -12.1 10.2
08:55 1013 29.91 842 24.86 -9.6 14.8 80 -12.4 9.7
09:00 1013 29.91 842 24.86 -9.8 14.4 82 -12.3 9.8
09:05 1013 29.91 842 24.86 -9.8 14.4 80 -12.6 9.4
09:10 1013 29.91 842 24.86 -9.7 14.5 81 -12.4 9.8
09:15 1013 29.91 842 24.86 -9.3 15.3 79 -12.4 9.7
09:20 1013 29.91 842 24.86 -9.2 15.4 79 -12.3 9.9
09:25 1013 29.91 842 24.86 -9.3 15.2 79 -12.4 9.7
09:30 1013 29.91 843 24.89 -9.2 15.4 78 -12.5 9.6
09:35 1013 29.91 843 24.89 -9.2 15.5 78 -12.4 9.7
09:40 1013 29.91 843 24.89 -9.1 15.6 77 -12.4 9.7
09:45 1013 29.91 843 24.89 -9.4 15 78 -12.6 9.3
09:50 1013 29.91 843 24.89 -9.7 14.5 81 -12.5 9.5
09:55 1013 29.91 843 24.89 -9.4 15 79 -12.5 9.5
10:00 1013 29.91 843 24.89 -9.4 15.1 80 -12.3 9.9
10:05 1014 29.94 843 24.89 -9.3 15.3 78 -12.5 9.5
10:10 1014 29.94 843 24.89 -9.4 15.1 80 -12.3 9.9
10:15 1014 29.94 843 24.89 -8.9 16 77 -12.2 10
10:20 1014 29.94 843 24.89 -8.5 16.8 75 -12.2 10
10:25 1014 29.94 843 24.89 -8.3 17 74 -12.2 10
10:30 1014 29.94 843 24.89 -8.3 17.2 74 -12.1 10.2
10:35 1014 29.94 843 24.89 -7.9 17.7 72 -12.2 10.1
10:40 1014 29.94 843 24.89 -7.5 18.5 72 -11.8 10.8
10:45 1014 29.94 843 24.89 -7.4 18.8 71 -11.8 10.8
10:50 1014 29.94 843 24.89 -7.8 18.1 72 -12 10.3
10:55 1014 29.94 843 24.89 -7.7 18.2 72 -11.9 10.6
11:00 1014 29.94 843 24.89 -7.6 18.3 72 -11.8 10.7
11:05 1014 29.94 843 24.89 -7.8 18.1 75 -11.5 11.3
11:10 1014 29.94 843 24.89 -7.9 17.9 75 -11.5 11.4
11:15 1014 29.94 843 24.89 -7.5 18.5 73 -11.5 11.2
11:20 1014 29.94 843 24.89 -7.5 18.5 75 -11.1 11.9
11:25 1014 29.94 843 24.89 -7.7 18.1 76 -11.3 11.7
11:30 1014 29.94 843 24.89 -7.7 18.2 75 -11.4 11.4
11:35 1014 29.94 843 24.89 -7.2 19 72 -11.4 11.6
11:40 1014 29.94 843 24.89 -5.9 21.4 67 -11.2 11.9
11:45 1014 29.94 843 24.89 -5.6 21.9 63 -11.6 11.1
11:50 1014 29.94 843 24.89 -5.5 22.1 67 -10.7 12.7
11:55 1014 29.94 843 24.89 -6.6 20.1 71 -11.1 12
12:00 1014 29.94 843 24.89 -6.1 21 68 -11.1 12
12:05 1014 29.94 843 24.89 -5.6 21.9 70 -10.3 13.5
12:10 1014 29.94 843 24.89 -6.5 20.4 73 -10.5 13.1
12:15 1014 29.94 843 24.89 -6.4 20.4 70 -11 12.2
12:20 1014 29.94 843 24.89 -6.2 20.8 70 -10.8 12.5
12:25 1014 29.94 843 24.89 -7 19.5 74 -10.8 12.6
12:30 1014 29.94 843 24.89 -7.6 18.2 77 -11.1 12.1
12:35 1014 29.94 843 24.89 -7.1 19.1 69 -11.9 10.6
12:40 1014 29.94 843 24.89 -6.7 19.9 68 -11.7 10.9
12:45 1014 29.94 843 24.89 -6.2 20.8 67 -11.3 11.6
12:50 1014 29.94 843 24.89 -6 21.2 67 -11.2 11.8
12:55 1014 29.94 843 24.89 -6.1 21.1 67 -11.3 11.7
13:00 1014 29.94 843 24.89 -5.3 22.4 63 -11.2 11.8
13:05 1014 29.94 843 24.89 -5.5 22.2 65 -11.1 12
13:10 1014 29.94 843 24.89 -5.4 22.2 64 -11.2 11.9
13:15 1014 29.94 843 24.89 -6.1 21 67 -11.2 11.8
13:20 1014 29.94 843 24.89 -7 19.4 72 -11.3 11.7
13:25 1014 29.94 843 24.89 -7.6 18.4 73 -11.6 11.2
13:30 1014 29.94 843 24.89 -7.8 18 75 -11.5 11.2
13:35 1014 29.94 843 24.89 -7.8 17.9 73 -11.9 10.5
13:40 1014 29.94 843 24.89 -7.6 18.3 73 -11.7 11
13:45 1014 29.94 843 24.89 -7 19.4 69 -11.7 10.9
13:50 1014 29.94 843 24.89 -6.2 20.8 66 -11.5 11.2
13:55 1014 29.94 843 24.89 -6.2 20.8 66 -11.5 11.2
14:00 1014 29.94 843 24.89 -6 21.2 66 -11.4 11.5
14:05 1014 29.94 843 24.89 -5.5 22.1 61 -11.8 10.7
14:10 1014 29.94 843 24.89 -5.9 21.5 64 -11.6 11.1
14:15 1014 29.94 843 24.89 -5.3 22.4 60 -11.9 10.6
14:20 1014 29.94 843 24.89 -4.8 23.4 60 -11.5 11.3
14:25 1014 29.94 843 24.89 -4 24.7 58 -11.1 12.1
14:30 1014 29.94 843 24.89 -4.4 24.1 59 -11.3 11.6
14:35 1014 29.94 843 24.89 -4.6 23.7 59 -11.5 11.2
14:40 1014 29.94 843 24.89 -4.7 23.5 58 -11.8 10.7
14:45 1014 29.94 843 24.89 -4.6 23.7 59 -11.6 11.2
14:50 1014 29.94 843 24.89 -4.6 23.7 59 -11.5 11.3
14:55 1014 29.94 843 24.89 -4.3 24.2 59 -11.2 11.8
15:00 1014 29.94 843 24.89 -4.2 24.5 58 -11.2 11.9
15:05 1014 29.94 843 24.89 -3.6 25.6 55 -11.3 11.6
15:10 1014 29.94 843 24.89 -3.3 26.1 56 -11 12.3
15:15 1014 29.94 843 24.89 -3.4 25.9 57 -10.7 12.7
15:20 1014 29.94 843 24.89 -4.2 24.5 62 -10.4 13.3
15:25 1014 29.94 844 24.92 -5.7 21.8 68 -10.6 12.9
15:30 1014 29.94 844 24.92 -6 21.2 68 -11.1 12.1
15:35 1014 29.94 844 24.92 -5.8 21.5 67 -11.1 12
15:40 1014 29.94 844 24.92 -5.9 21.5 68 -10.8 12.6
15:45 1015 29.97 844 24.92 -6.3 20.7 69 -11 12.3
15:50 1015 29.97 844 24.92 -6.4 20.6 69 -11.2 11.9
15:55 1015 29.97 844 24.92 -6.3 20.7 68 -11.3 11.7
16:00 1015 29.97 844 24.92 -6.4 20.4 70 -11.1 12.1
16:05 1015 29.97 844 24.92 -6.7 19.9 70 -11.4 11.5
16:10 1015 29.97 844 24.92 -7.2 19.1 71 -11.6 11.1
16:15 1015 29.97 844 24.92 -7.5 18.6 72 -11.6 11.1
16:20 1015 29.97 844 24.92 -7.3 18.8 71 -11.7 10.9
16:25 1015 29.97 844 24.92 -7.4 18.6 72 -11.7 11
16:30 1015 29.97 844 24.92 -7.4 18.8 71 -11.7 11
16:35 1015 29.97 844 24.92 -7.3 18.9 71 -11.6 11.1
16:40 1015 29.97 844 24.92 -7.2 19 71 -11.6 11.1
16:45 1015 29.97 844 24.92 -7.2 19.1 71 -11.6 11.1
16:50 1015 29.97 844 24.92 -6.8 19.8 68 -11.8 10.8
16:55 1015 29.97 844 24.92 -6.6 20.2 67 -11.7 11
17:00 1015 29.97 844 24.92 -5.8 21.5 63 -11.8 10.7
17:05 1015 29.97 844 24.92 -5.5 22.2 63 -11.5 11.3
17:10 1015 29.97 844 24.92 -5.7 21.8 65 -11.3 11.6
17:15 1015 29.97 844 24.92 -6.3 20.6 69 -11.2 11.9
17:20 1015 29.97 844 24.92 -6.6 20 69 -11.4 11.6
17:25 1015 29.97 844 24.92 -6.9 19.6 71 -11.3 11.7
17:30 1015 29.97 844 24.92 -7.3 18.8 74 -11.3 11.7
17:35 1015 29.97 844 24.92 -7.8 18 76 -11.3 11.7
17:40 1015 29.97 844 24.92 -8.3 17 78 -11.5 11.3
17:45 1015 29.97 844 24.92 -8.6 16.6 79 -11.6 11.2
17:50 1015 29.97 845 24.95 -8.7 16.3 79 -11.7 11
17:55 1015 29.97 845 24.95 -8.8 16.2 80 -11.7 10.9
18:00 1015 29.97 845 24.95 -8.8 16.2 80 -11.7 11
18:05 1015 29.97 845 24.95 -8.8 16.1 80 -11.7 10.9
18:10 1015 29.97 845 24.95 -9 15.8 81 -11.6 11.1
18:15 1016 30 845 24.95 -9.2 15.5 82 -11.7 10.9
18:20 1016 30 845 24.95 -9.2 15.4 82 -11.7 10.9
18:25 1016 30 845 24.95 -9.2 15.4 82 -11.8 10.8
18:30 1016 30 845 24.95 -9.1 15.7 81 -11.8 10.7
18:35 1016 30 845 24.95 -8.9 16 80 -11.7 10.9
18:40 1016 30 845 24.95 -9.1 15.7 81 -11.7 10.9
18:45 1016 30 845 24.95 -9.2 15.4 82 -11.8 10.7
18:50 1016 30 845 24.95 -9.3 15.3 81 -11.9 10.6
18:55 1016 30 845 24.95 -9.2 15.4 81 -11.9 10.7
19:00 1016 30 845 24.95 -9.2 15.5 81 -12 10.5
19:05 1016 30 845 24.95 -9.2 15.5 80 -12 10.4
19:10 1016 30 845 24.95 -8.9 15.9 78 -12.1 10.3
19:15 1016 30 845 24.95 -8.7 16.3 78 -12 10.5
19:20 1016 30 845 24.95 -8.8 16.2 78 -11.9 10.5
19:25 1016 30 845 24.95 -8.9 16 79 -12 10.4
19:30 1016 30 845 24.95 -8.9 15.9 79 -12 10.4
19:35 1016 30 845 24.95 -9 15.9 80 -11.9 10.7
19:40 1016 30 845 24.95 -9 15.8 80 -11.8 10.7
19:45 1016 30 845 24.95 -9 15.8 80 -11.9 10.7
19:50 1016 30 845 24.95 -8.9 15.9 79 -11.9 10.6
19:55 1016 30 845 24.95 -9.2 15.5 81 -11.9 10.6
20:00 1016 30 845 24.95 -9.4 15 81 -12.1 10.3
20:05 1016 30 845 24.95 -9.5 14.9 81 -12.1 10.1
20:10 1016 30 845 24.95 -9.3 15.3 80 -12.1 10.2
20:15 1016 30 845 24.95 -9 15.8 79 -12 10.4
20:20 1016 30 845 24.95 -9.1 15.7 80 -11.9 10.5
20:25 1016 30 845 24.95 -9.1 15.6 81 -11.8 10.8
20:30 1016 30 846 24.98 -8.9 16 81 -11.7 11
20:35 1016 30 846 24.98 -8.6 16.5 78 -11.8 10.8
20:40 1016 30 846 24.98 -8.3 17 77 -11.7 10.9
20:45 1016 30 846 24.98 -8.3 17.2 76 -11.8 10.8
20:50 1016 30 846 24.98 -8.4 16.9 77 -11.7 11
20:55 1016 30 846 24.98 -8.2 17.3 77 -11.4 11.4
21:00 1016 30 846 24.98 -8.1 17.5 78 -11.2 11.8
21:05 1016 30 846 24.98 -8.3 17.1 78 -11.4 11.4
21:10 1016 30 846 24.98 -8.1 17.5 77 -11.4 11.4
21:15 1016 30 846 24.98 -8.4 17 79 -11.3 11.6
21:20 1016 30 846 24.98 -8.7 16.4 80 -11.6 11.2
21:25 1016 30 845 24.95 -8.6 16.6 80 -11.4 11.5
21:30 1016 30 845 24.95 -8.8 16.2 81 -11.5 11.2
21:35 1016 30 845 24.95 -9.2 15.4 83 -11.5 11.2
21:40 1016 30 845 24.95 -8.9 15.9 80 -11.7 10.9
21:45 1016 30 845 24.95 -8.5 16.7 76 -12 10.4
21:50 1016 30 845 24.95 -8 17.5 74 -11.9 10.6
21:55 1016 30 845 24.95 -7.7 18.1 72 -11.9 10.6
22:00 1016 30 845 24.95 -7.7 18.1 73 -11.7 10.9
22:05 1016 30 845 24.95 -7.8 18 73 -11.8 10.8
22:10 1016 30 845 24.95 -7.8 18 74 -11.7 11
22:15 1016 30 845 24.95 -7.8 17.9 74 -11.6 11
22:20 1016 30 846 24.98 -7.8 17.9 74 -11.7 10.9
22:25 1016 30 846 24.98 -7.8 18 74 -11.7 11
22:30 1016 30 846 24.98 -7.8 17.9 73 -11.8 10.8
22:35 1016 30 846 24.98 -7.9 17.7 74 -11.8 10.7
22:40 1017 30.03 846 24.98 -8.1 17.4 74 -11.9 10.6
22:45 1017 30.03 846 24.98 -8.4 16.9 77 -11.7 10.9
22:50 1017 30.03 846 24.98 -9.2 15.4 80 -12.1 10.2
22:55 1017 30.03 846 24.98 -9.3 15.3 79 -12.3 9.9
23:00 1017 30.03 846 24.98 -9.2 15.5 79 -12.2 10.1
23:05 1017 30.03 846 24.98 -8.9 16.1 77 -12.1 10.2
23:10 1017 30.03 846 24.98 -8.6 16.6 75 -12.2 10
23:15 1017 30.03 846 24.98 -8.7 16.3 77 -12 10.3
23:20 1017 30.03 846 24.98 -8.8 16.3 76 -12.2 10.1
23:25 1017 30.03 846 24.98 -8.8 16.2 77 -12.1 10.3
23:30 1017 30.03 846 24.98 -8.7 16.4 76 -12.1 10.2
23:35 1017 30.03 846 24.98 -8.6 16.6 76 -12.1 10.3
23:40 1017 30.03 846 24.98 -8.6 16.6 76 -12.1 10.2
23:45 1017 30.03 846 24.98 -8.7 16.4 77 -12.1 10.3
23:50 1017 30.03 846 24.98 -8.9 16.1 77 -12.2 10.1
23:55 1017 30.03 847 25.01 -9.2 15.4 78 -12.4 9.7
24:00 1017 30.03 847 25.01 -9.6 14.8 80 -12.5 9.6